createdAt,value
2023-01-07T00:00:24.317Z,3.70
2023-01-07T00:03:28.110Z,3.60
2023-01-07T00:06:33.614Z,4.13
2023-01-07T00:09:37.021Z,3.38
2023-01-07T00:12:40.400Z,3.33
2023-01-07T00:15:44.793Z,2.83
2023-01-07T00:18:48.742Z,3.10
2023-01-07T00:21:52.215Z,3.10
2023-01-07T00:24:55.644Z,3.40
2023-01-07T00:27:58.941Z,3.13
2023-01-07T00:31:05.039Z,2.57
2023-01-07T00:34:09.682Z,3.45
2023-01-07T00:37:32.685Z,3.53
2023-01-07T00:40:36.035Z,3.45
2023-01-07T00:43:39.482Z,3.60
2023-01-07T00:46:43.932Z,3.28
2023-01-07T00:49:47.289Z,2.38
2023-01-07T00:52:50.954Z,2.53
2023-01-07T00:55:54.077Z,2.67
2023-01-07T00:58:57.089Z,3.15
2023-01-07T01:02:01.638Z,2.40
2023-01-07T01:05:06.364Z,3.10
2023-01-07T01:08:11.356Z,2.17
2023-01-07T01:11:17.377Z,2.97
2023-01-07T01:14:20.809Z,2.53
2023-01-07T01:17:25.359Z,1.88
2023-01-07T01:20:28.689Z,2.22
2023-01-07T01:23:32.080Z,3.10
2023-01-07T01:26:35.387Z,2.30
2023-01-07T01:29:38.748Z,3.20
2023-01-07T01:32:43.129Z,3.17
2023-01-07T01:35:46.593Z,2.85
2023-01-07T01:38:50.220Z,2.72
2023-01-07T01:41:53.532Z,3.35
2023-01-07T01:44:58.836Z,3.07
2023-01-07T01:48:09.440Z,2.97
2023-01-07T01:51:16.604Z,3.05
2023-01-07T01:54:21.775Z,3.20
2023-01-07T01:57:29.907Z,3.95
2023-01-07T02:00:35.287Z,2.90
2023-01-07T02:03:40.465Z,3.33
2023-01-07T02:06:51.667Z,3.42
2023-01-07T02:10:02.161Z,3.05
2023-01-07T02:13:26.527Z,3.25
2023-01-07T02:16:39.252Z,3.33
2023-01-07T02:20:30.400Z,3.50
2023-01-07T02:24:36.779Z,2.55
2023-01-07T02:28:29.613Z,3.10
2023-01-07T02:32:03.472Z,2.38
2023-01-07T02:35:24.843Z,3.15
2023-01-07T02:38:41.777Z,3.25
2023-01-07T02:41:58.463Z,3.03
2023-01-07T02:45:12.378Z,3.13
2023-01-07T02:48:20.572Z,2.47
2023-01-07T02:51:34.474Z,2.50
2023-01-07T02:54:37.513Z,3.50
2023-01-07T02:58:24.243Z,3.20
2023-01-07T03:01:53.768Z,3.08
2023-01-07T03:05:33.761Z,3.05
2023-01-07T03:08:58.722Z,3.03
2023-01-07T03:12:10.500Z,2.63
2023-01-07T03:15:22.093Z,2.80
2023-01-07T03:18:30.349Z,3.35
2023-01-07T03:21:36.036Z,2.97
2023-01-07T03:24:41.250Z,3.20
2023-01-07T03:27:49.246Z,3.20
2023-01-07T03:30:55.624Z,2.83
2023-01-07T03:34:04.483Z,3.67
2023-01-07T03:37:13.910Z,3.30
2023-01-07T03:40:20.388Z,3.17
2023-01-07T03:43:24.602Z,2.78
2023-01-07T03:49:31.100Z,3.42
2023-01-07T03:52:35.527Z,3.57
2023-01-07T03:55:38.585Z,2.80
2023-01-07T03:58:41.537Z,3.15
2023-01-07T04:01:44.679Z,3.08
2023-01-07T04:04:47.833Z,3.63
2023-01-07T04:07:52.268Z,3.45
2023-01-07T04:10:55.221Z,3.40
2023-01-07T04:14:00.643Z,3.15
2023-01-07T04:17:03.845Z,3.83
2023-01-07T04:20:08.563Z,4.15
2023-01-07T04:23:13.029Z,3.67
2023-01-07T04:26:16.077Z,3.38
2023-01-07T04:29:20.972Z,3.50
2023-01-07T04:32:24.065Z,3.10
2023-01-07T04:35:27.164Z,3.20
2023-01-07T04:38:31.717Z,4.35
2023-01-07T04:41:34.784Z,4.10
2023-01-07T04:44:37.757Z,3.58
2023-01-07T04:47:40.737Z,3.50
2023-01-07T04:50:43.778Z,3.50
2023-01-07T04:53:48.660Z,3.50
2023-01-07T04:56:51.605Z,3.95
2023-01-07T04:59:54.877Z,3.60
2023-01-07T05:02:58.049Z,3.53
2023-01-07T05:06:01.606Z,3.00
2023-01-07T05:09:06.397Z,4.20
2023-01-07T05:12:09.439Z,3.67
2023-01-07T05:15:13.198Z,3.75
2023-01-07T05:18:17.066Z,3.25
2023-01-07T05:21:20.447Z,4.10
2023-01-07T05:24:24.758Z,3.43
2023-01-07T05:27:28.156Z,4.20
2023-01-07T05:30:31.545Z,3.07
2023-01-07T05:33:34.923Z,3.65
2023-01-07T05:36:38.284Z,3.30
2023-01-07T05:39:42.641Z,3.83
2023-01-07T05:42:46.180Z,3.95
2023-01-07T05:45:49.985Z,3.83
2023-01-07T05:48:54.119Z,4.47
2023-01-07T05:55:01.293Z,4.15
2023-01-07T05:58:04.243Z,4.40
2023-01-07T06:01:07.244Z,3.75
2023-01-07T06:04:10.769Z,4.30
2023-01-07T06:07:13.988Z,3.53
2023-01-07T06:10:18.963Z,4.13
2023-01-07T06:13:22.362Z,4.50
2023-01-07T06:16:25.825Z,4.40
2023-01-07T06:19:29.177Z,4.55
2023-01-07T06:22:32.486Z,4.77
2023-01-07T06:25:37.121Z,4.97
2023-01-07T06:28:40.335Z,4.90
2023-01-07T06:31:43.764Z,5.20
2023-01-07T06:34:46.727Z,5.90
2023-01-07T06:37:50.053Z,5.55
2023-01-07T06:40:54.248Z,5.63
2023-01-07T06:47:00.507Z,6.10
2023-01-07T06:50:03.646Z,5.78
2023-01-07T06:53:06.840Z,4.70
2023-01-07T06:56:11.654Z,6.47
2023-01-07T06:59:14.831Z,5.78
2023-01-07T07:02:21.166Z,6.88
2023-01-07T07:05:25.315Z,6.90
2023-01-07T07:11:33.244Z,6.68
2023-01-07T07:14:36.782Z,7.95
2023-01-07T07:17:40.252Z,7.50
2023-01-07T07:20:43.844Z,7.15
2023-01-07T07:23:46.974Z,8.27
2023-01-07T07:26:52.065Z,7.03
2023-01-07T07:29:55.087Z,7.88
2023-01-07T07:33:03.480Z,7.30
2023-01-07T07:36:07.319Z,7.60
2023-01-07T07:39:11.821Z,7.45
2023-01-07T07:42:16.275Z,7.90
2023-01-07T07:45:19.802Z,7.60
2023-01-07T07:48:22.981Z,8.05
2023-01-07T07:51:26.076Z,7.45
2023-01-07T07:54:29.435Z,7.63
2023-01-07T07:57:33.864Z,7.65
2023-01-07T08:00:36.936Z,7.55
2023-01-07T08:03:40.209Z,8.38
2023-01-07T08:06:43.331Z,7.40
2023-01-07T08:09:46.236Z,7.40
2023-01-07T08:12:51.071Z,7.53
2023-01-07T08:15:54.163Z,8.40
2023-01-07T08:18:57.247Z,8.10
2023-01-07T08:22:00.227Z,7.70
2023-01-07T08:25:03.817Z,8.25
2023-01-07T08:28:08.358Z,8.18
2023-01-07T08:31:11.944Z,8.60
2023-01-07T08:34:15.203Z,8.73
2023-01-07T08:37:18.654Z,8.88
2023-01-07T08:40:21.656Z,9.35
2023-01-07T08:43:26.173Z,8.10
2023-01-07T08:46:29.281Z,8.57
2023-01-07T08:49:33.289Z,9.60
2023-01-07T08:52:36.265Z,10.27
2023-01-07T08:55:39.263Z,11.50
2023-01-07T08:58:43.563Z,11.18
2023-01-07T09:01:46.688Z,11.90
2023-01-07T09:04:50.290Z,10.57
2023-01-07T09:07:54.173Z,11.52
2023-01-07T09:10:57.516Z,12.32
2023-01-07T09:14:02.040Z,11.03
2023-01-07T09:17:05.099Z,12.27
2023-01-07T09:20:10.336Z,11.90
2023-01-07T09:23:13.366Z,11.57
2023-01-07T09:26:17.672Z,11.32
2023-01-07T09:29:22.130Z,10.93
2023-01-07T09:32:25.185Z,11.93
2023-01-07T09:35:28.259Z,11.32
2023-01-07T09:38:31.490Z,12.50
2023-01-07T09:41:56.044Z,12.63
2023-01-07T09:45:16.475Z,12.10
2023-01-07T09:48:30.307Z,12.65
2023-01-07T09:51:40.216Z,12.27
2023-01-07T09:54:45.580Z,13.05
2023-01-07T09:57:53.576Z,12.15
2023-01-07T10:01:18.568Z,13.10
2023-01-07T10:04:39.484Z,11.55
2023-01-07T10:07:51.218Z,14.02
2023-01-07T10:11:05.584Z,13.50
2023-01-07T10:17:56.584Z,14.07
2023-01-07T10:21:13.289Z,15.05
2023-01-07T10:24:24.450Z,14.52
2023-01-07T10:27:34.254Z,13.57
2023-01-07T10:30:45.321Z,13.05
2023-01-07T10:33:52.415Z,13.70
2023-01-07T10:37:03.626Z,13.25
2023-01-07T10:40:28.963Z,12.55
2023-01-07T10:43:59.741Z,12.07
2023-01-07T10:47:17.910Z,11.30
2023-01-07T10:50:41.121Z,10.57
2023-01-07T10:54:01.313Z,10.27
2023-01-07T10:57:13.651Z,11.18
2023-01-07T11:00:19.305Z,11.48
2023-01-07T11:03:25.346Z,11.00
2023-01-07T11:06:40.528Z,11.85
2023-01-07T11:09:48.063Z,11.45
2023-01-07T11:12:55.386Z,11.55
2023-01-07T11:16:07.732Z,12.52
2023-01-07T11:19:13.005Z,12.10
2023-01-07T11:22:37.892Z,11.30
2023-01-07T11:25:42.058Z,12.30
2023-01-07T11:31:58.709Z,9.68
2023-01-07T11:35:06.598Z,10.05
2023-01-07T11:38:29.764Z,8.70
2023-01-07T11:41:32.764Z,8.88
2023-01-07T11:44:35.721Z,8.07
2023-01-07T11:47:45.409Z,8.85
2023-01-07T11:51:00.040Z,9.05
2023-01-07T11:54:07.466Z,8.68
2023-01-07T11:57:21.601Z,6.65
2023-01-07T12:00:25.678Z,6.82
2023-01-07T12:03:28.786Z,6.00
2023-01-07T12:06:35.868Z,6.00
2023-01-07T12:09:45.920Z,6.18
2023-01-07T12:12:48.847Z,4.95
2023-01-07T12:15:57.455Z,4.90
2023-01-07T12:19:19.110Z,4.93
2023-01-07T12:22:35.809Z,4.68
2023-01-07T12:25:55.558Z,3.88
2023-01-07T12:29:14.716Z,3.55
2023-01-07T12:32:45.217Z,3.08
2023-01-07T12:35:48.772Z,3.17
2023-01-07T12:38:57.453Z,3.25
2023-01-07T12:42:13.228Z,2.78
2023-01-07T12:45:24.076Z,2.35
2023-01-07T12:48:38.192Z,2.67
2023-01-07T12:51:51.850Z,2.88
2023-01-07T12:55:01.725Z,3.10
2023-01-07T12:58:17.742Z,2.95
2023-01-07T13:01:31.585Z,3.17
2023-01-07T13:04:54.643Z,2.88
2023-01-07T13:08:12.456Z,3.22
2023-01-07T13:11:46.423Z,3.08
2023-01-07T13:15:02.414Z,3.13
2023-01-07T13:18:16.906Z,3.92
2023-01-07T13:24:54.488Z,3.42
2023-01-07T13:28:40.072Z,3.47
2023-01-07T13:32:23.037Z,3.47
2023-01-07T13:35:49.587Z,3.20
2023-01-07T13:39:40.768Z,3.38
2023-01-07T13:42:52.051Z,3.10
2023-01-07T13:46:03.057Z,2.83
2023-01-07T13:49:24.541Z,2.88
2023-01-07T13:52:36.547Z,3.42
2023-01-07T13:55:42.669Z,4.05
2023-01-07T13:58:48.215Z,4.25
2023-01-07T14:02:18.516Z,3.83
2023-01-07T14:05:28.906Z,4.50
2023-01-07T14:08:32.413Z,4.57
2023-01-07T14:12:13.321Z,4.85
2023-01-07T14:16:04.131Z,5.45
2023-01-07T14:19:20.397Z,5.57
2023-01-07T14:22:41.257Z,6.70
2023-01-07T14:26:06.657Z,6.55
2023-01-07T14:29:31.784Z,6.80
2023-01-07T14:32:37.860Z,6.50
2023-01-07T14:35:43.327Z,7.90
2023-01-07T14:39:31.251Z,8.52
2023-01-07T14:42:44.803Z,8.50
2023-01-07T14:45:55.991Z,7.50
2023-01-07T14:49:32.204Z,9.15
2023-01-07T14:53:46.352Z,9.43
2023-01-07T14:57:07.209Z,9.75
2023-01-07T15:00:55.771Z,10.45
2023-01-07T15:04:53.170Z,10.80
2023-01-07T15:08:17.029Z,14.50
2023-01-07T15:11:44.209Z,15.25
2023-01-07T15:15:12.898Z,14.77
2023-01-07T15:18:16.994Z,13.60
2023-01-07T15:21:34.221Z,13.73
2023-01-07T15:24:46.920Z,14.13
2023-01-07T15:27:59.639Z,14.43
2023-01-07T15:31:13.622Z,16.08
2023-01-07T15:34:18.920Z,16.42
2023-01-07T15:37:23.490Z,17.17
2023-01-07T15:40:28.082Z,17.77
2023-01-07T15:43:32.936Z,19.15
2023-01-07T15:46:41.674Z,20.95
2023-01-07T15:49:44.618Z,20.83
2023-01-07T15:52:50.615Z,20.08
2023-01-07T15:56:00.486Z,20.00
2023-01-07T15:59:09.321Z,21.05
2023-01-07T16:02:24.122Z,20.25
2023-01-07T16:05:27.263Z,23.73
2023-01-07T16:08:33.381Z,21.08
2023-01-07T16:11:36.566Z,24.67
2023-01-07T16:14:39.566Z,22.60
2023-01-07T16:17:52.651Z,20.90
2023-01-07T16:21:00.438Z,22.45
2023-01-07T16:24:03.823Z,21.63
2023-01-07T16:27:07.343Z,21.83
2023-01-07T16:30:15.793Z,23.63
2023-01-07T16:33:25.588Z,22.67
2023-01-07T16:36:40.542Z,21.20
2023-01-07T16:42:51.277Z,19.83
2023-01-07T16:46:17.113Z,20.75
2023-01-07T16:49:29.270Z,19.98
2023-01-07T16:52:34.408Z,19.02
2023-01-07T16:55:49.977Z,19.35
2023-01-07T16:58:55.561Z,20.15
2023-01-07T17:02:01.186Z,20.15
2023-01-07T17:05:20.903Z,19.38
2023-01-07T17:08:24.402Z,19.60
2023-01-07T17:11:36.539Z,18.17
2023-01-07T17:14:50.558Z,17.70
2023-01-07T17:18:09.189Z,17.88
2023-01-07T17:21:40.260Z,18.33
2023-01-07T17:24:50.399Z,15.95
2023-01-07T17:27:58.120Z,15.45
2023-01-07T17:31:02.298Z,16.38
2023-01-07T17:37:15.879Z,16.40
2023-01-07T17:40:20.474Z,14.63
2023-01-07T17:43:35.220Z,15.25
2023-01-07T17:46:39.000Z,15.10
2023-01-07T17:49:42.351Z,15.38
2023-01-07T17:52:48.923Z,14.17
2023-01-07T17:55:52.332Z,14.30
2023-01-07T17:58:56.310Z,13.77
2023-01-07T18:02:00.674Z,13.25
2023-01-07T18:05:03.763Z,14.27
2023-01-07T18:08:09.167Z,13.23
2023-01-07T18:11:33.612Z,12.45
2023-01-07T18:14:36.578Z,12.38
2023-01-07T18:17:40.000Z,13.50
2023-01-07T18:20:42.966Z,13.30
2023-01-07T18:23:47.549Z,12.43
2023-01-07T18:26:51.557Z,13.05
2023-01-07T18:29:54.523Z,12.07
2023-01-07T18:32:57.586Z,12.43
2023-01-07T18:36:00.594Z,10.90
2023-01-07T18:39:06.624Z,11.75
2023-01-07T18:42:09.789Z,11.20
2023-01-07T18:45:13.569Z,11.07
2023-01-07T18:48:19.313Z,11.30
2023-01-07T18:51:22.657Z,11.90
2023-01-07T18:54:27.070Z,12.43
2023-01-07T18:57:30.470Z,11.88
2023-01-07T19:00:33.824Z,11.13
2023-01-07T19:03:38.282Z,12.70
2023-01-07T19:06:41.339Z,13.25
2023-01-07T19:09:46.038Z,12.13
2023-01-07T19:12:50.262Z,12.50
2023-01-07T19:15:53.934Z,12.73
2023-01-07T19:18:57.426Z,11.73
2023-01-07T19:22:00.398Z,11.02
2023-01-07T19:25:05.743Z,10.65
2023-01-07T19:28:08.760Z,10.90
2023-01-07T19:31:12.541Z,10.00
2023-01-07T19:34:16.469Z,9.98
2023-01-07T19:37:21.822Z,10.10
2023-01-07T19:40:26.127Z,9.10
2023-01-07T19:43:29.113Z,8.65
2023-01-07T19:46:34.298Z,8.38
2023-01-07T19:49:37.273Z,9.45
2023-01-07T19:52:40.251Z,8.55
2023-01-07T19:55:44.538Z,8.38
2023-01-07T19:58:47.542Z,8.18
2023-01-07T20:01:51.836Z,7.90
2023-01-07T20:04:55.041Z,7.28
2023-01-07T20:07:59.052Z,8.63
2023-01-07T20:11:03.960Z,7.97
2023-01-07T20:14:08.100Z,7.00
2023-01-07T20:20:14.114Z,7.03
2023-01-07T20:23:17.032Z,6.68
2023-01-07T20:26:23.680Z,6.78
2023-01-07T20:29:26.791Z,6.80
2023-01-07T20:32:29.735Z,6.45
2023-01-07T20:35:32.926Z,6.07
2023-01-07T20:38:36.463Z,6.55
2023-01-07T20:41:41.050Z,6.07
2023-01-07T20:44:44.035Z,5.60
2023-01-07T20:47:47.031Z,5.18
2023-01-07T20:50:49.999Z,5.00
2023-01-07T20:53:53.211Z,5.45
2023-01-07T20:56:57.629Z,5.67
2023-01-07T21:00:00.649Z,5.50
2023-01-07T21:03:03.736Z,5.72
2023-01-07T21:06:09.859Z,5.18
2023-01-07T21:09:13.388Z,4.53
2023-01-07T21:12:18.872Z,5.13
2023-01-07T21:15:23.863Z,5.18
2023-01-07T21:18:26.850Z,5.05
2023-01-07T21:21:30.872Z,5.07
2023-01-07T21:24:33.886Z,4.93
2023-01-07T21:27:38.307Z,5.35
2023-01-07T21:30:41.378Z,5.00
2023-01-07T21:33:45.808Z,4.80
2023-01-07T21:36:50.119Z,4.30
2023-01-07T21:39:55.400Z,4.80
2023-01-07T21:43:00.482Z,5.18
2023-01-07T21:46:06.268Z,5.10
2023-01-07T21:49:09.440Z,5.00
2023-01-07T21:52:12.419Z,5.20
2023-01-07T21:55:15.346Z,4.78
2023-01-07T21:58:19.837Z,4.88
2023-01-07T22:01:29.603Z,4.75
2023-01-07T22:04:32.741Z,4.40
2023-01-07T22:07:35.716Z,4.20
2023-01-07T22:10:38.816Z,3.65
2023-01-07T22:13:43.257Z,4.03
2023-01-07T22:16:48.891Z,3.60
2023-01-07T22:23:30.243Z,4.50
2023-01-07T22:26:36.019Z,4.60
2023-01-07T22:29:40.375Z,4.65
2023-01-07T22:32:43.325Z,5.47
2023-01-07T22:35:47.983Z,5.85
2023-01-07T22:38:52.478Z,5.63
2023-01-07T22:42:02.430Z,5.60
2023-01-07T22:45:14.126Z,5.30
2023-01-07T22:48:23.852Z,5.72
2023-01-07T22:51:32.867Z,5.93
2023-01-07T22:54:37.008Z,5.50
2023-01-07T23:01:12.692Z,5.45
2023-01-07T23:04:15.800Z,5.95
2023-01-07T23:07:19.177Z,5.53
2023-01-07T23:10:22.157Z,4.70
2023-01-07T23:13:25.670Z,5.20
2023-01-07T23:16:30.209Z,4.90
2023-01-07T23:19:33.303Z,4.95
2023-01-07T23:22:36.689Z,4.70
2023-01-07T23:25:46.494Z,5.07
2023-01-07T23:28:51.320Z,4.38
2023-01-07T23:31:59.332Z,4.72
2023-01-07T23:35:03.833Z,4.45
2023-01-07T23:38:11.388Z,3.90
2023-01-07T23:41:14.922Z,4.47
2023-01-07T23:44:18.299Z,4.57
2023-01-07T23:47:22.716Z,4.50
2023-01-07T23:50:25.633Z,3.90
2023-01-07T23:53:29.014Z,4.18
2023-01-07T23:56:32.463Z,4.38
2023-01-07T23:59:36.104Z,4.53
